TimeAST,TemperatureF,Dew PointF,Humidity,Sea Level PressureIn,VisibilityMPH,Wind Direction,Wind SpeedMPH,Gust SpeedMPH,PrecipitationIn,Events,Conditions,WindDirDegrees,DateUTC
12:50 AM,75.2,69.8,83,29.97,10.0,Calm,Calm,-,N/A,,Partly Cloudy,0,2012-11-25 04:50:00
1:50 AM,77.0,73.4,89,29.95,10.0,Calm,Calm,-,N/A,,Scattered Clouds,0,2012-11-25 05:50:00
2:50 AM,77.0,73.4,89,29.93,10.0,Calm,Calm,-,N/A,,Scattered Clouds,0,2012-11-25 06:50:00
4:50 AM,73.4,69.8,88,29.93,10.0,Calm,Calm,-,N/A,,Clear,0,2012-11-25 08:50:00
6:50 AM,75.2,68.0,78,29.95,10.0,Calm,Calm,-,N/A,,Scattered Clouds,0,2012-11-25 10:50:00
7:50 AM,75.2,69.8,83,29.97,10.0,Calm,Calm,-,N/A,,Mostly Cloudy,0,2012-11-25 11:50:00
8:50 AM,82.4,71.6,70,29.98,10.0,ENE,5.8,-,N/A,,Mostly Cloudy,70,2012-11-25 12:50:00
9:50 AM,87.8,71.6,58,30.00,10.0,ESE,9.2,-,N/A,,Mostly Cloudy,120,2012-11-25 13:50:00
10:50 AM,89.6,71.6,55,29.99,10.0,SE,9.2,-,N/A,,Mostly Cloudy,140,2012-11-25 14:50:00
11:50 AM,91.4,73.4,55,29.99,10.0,ESE,11.5,-,N/A,,Mostly Cloudy,120,2012-11-25 15:50:00
12:50 PM,91.4,73.4,55,29.97,10.0,SSE,11.5,-,N/A,,Mostly Cloudy,150,2012-11-25 16:50:00
1:50 PM,91.4,73.4,55,29.95,10.0,SE,11.5,-,N/A,,Mostly Cloudy,130,2012-11-25 17:50:00
2:50 PM,87.8,77.0,70,29.93,10.0,SE,11.5,-,N/A,,Mostly Cloudy,140,2012-11-25 18:50:00
3:50 PM,87.8,69.8,55,29.93,10.0,SSE,5.8,-,N/A,,Mostly Cloudy,160,2012-11-25 19:50:00
4:50 PM,87.8,69.8,55,29.93,10.0,East,5.8,-,N/A,,Mostly Cloudy,80,2012-11-25 20:50:00
5:50 PM,84.2,71.6,66,29.94,10.0,East,6.9,-,N/A,,Mostly Cloudy,80,2012-11-25 21:50:00
7:50 PM,80.6,71.6,74,29.99,10.0,East,5.8,-,N/A,,Mostly Cloudy,100,2012-11-25 23:50:00
8:00 PM,80.6,71.6,74,30.01,10.0,Calm,Calm,-,N/A,,Mostly Cloudy,0,2012-11-26 00:00:00
10:50 PM,77.0,71.6,83,30.01,10.0,ESE,5.8,-,N/A,,Partly Cloudy,110,2012-11-26 02:50:00
11:50 PM,77.0,71.6,83,30.02,10.0,NE,5.8,-,N/A,,Partly Cloudy,40,2012-11-26 03:50:00